Elliot Chaparral Reserve, California Weather observations

Data are for 10 minute period ending at time listed.
 Day   Time   Solar   Ave.   Ave.  Ave.  Vector  Max.   Baro.   Total    
  of    of     Rad.   Air    Rel.  Wind   Wind   Wind  Press.  Precip.   
Year   Day            Temp.  Hum.  Speed  Dir.   Gust                    
2017   (PST)  Kw/m2    F      %     mph   deg.    mph    mb.     in.     
-------------------------------------------------------------------------
  54    9:10   0.46   52.8    54    8.5   337    12.2   989.4    0.00 
  54    9:20   0.49   53.7    52    8.5   330    13.3   989.4    0.00 
  54    9:30   0.54   53.7    52    8.9   315    13.1   989.5    0.00 
  54    9:40   0.57   54.3    50    8.5   349    13.2   989.5    0.00 
  54    9:50   0.44   54.0    50    9.8   306    15.3   989.5    0.00 
  54   10:00   0.38   52.8    52   10.7   318    16.8   989.5    0.00 
  54   10:10   0.71   54.4    49   10.0   299    17.2   989.5    0.00 
  54   10:20   0.69   55.2    47    8.3   311    16.3   989.5    0.00 
  54   10:30   0.69   56.0    44    9.2   323    17.1   989.5    0.00 
  54   10:40   0.70   55.8    41    9.2   333    16.8   989.4    0.00 
  54   10:50   0.71   55.1    41   10.1   317    18.1   989.4    0.00 
  54   11:00   0.72   55.4    42    9.5   324    14.5   989.4    0.00 
  54   11:10   0.73   56.0    43   10.8   310    16.0   989.3    0.00 
  54   11:20   0.74   55.9    42   11.3   305    18.4   989.3    0.00 
  54   11:30   0.74   55.7    42   12.9   306    19.3   989.2    0.00 
  54   11:40   0.75   56.0    42   10.2   310    16.1   989.1    0.00 
  54   11:50   0.72   56.0    43   14.2   287    20.5   989.0    0.00 
  54   12:00   0.75   55.3    43   15.6   284    22.4   988.9    0.00 
  54   12:10   0.75   55.3    42   14.5   290    22.9   989.0    0.00 
  54   12:20   0.75   55.7    44   14.4   282    21.5   988.9    0.00 
  54   12:30   0.75   55.3    44   15.7   276    21.2   988.8    0.00 
  54   12:40   0.74   55.0    44   15.0   292    19.5   988.8    0.00 
  54   12:50   0.73   55.1    46   13.8   275    22.2   988.7    0.00 
  54   13:00   0.72   55.1    46   16.0   281    21.1   988.6    0.00 
  54   13:10   0.71   55.2    45   17.6   284    25.4   988.5    0.00 
  54   13:20   0.70   55.1    44   15.3   291    24.3   988.5    0.00 
  54   13:30   0.69   55.1    45   15.1   288    20.2   988.4    0.00 
  54   13:40   0.67   54.8    45   15.0   289    22.4   988.4    0.00 
  54   13:50   0.65   54.9    45   14.6   290    21.0   988.3    0.00 
  54   14:00   0.63   54.8    46   14.6   288    21.4   988.2    0.00 
  54   14:10   0.61   54.7    45   15.0   289    21.8   988.3    0.00 
  54   14:20   0.59   54.8    46   13.3   293    20.0   988.2    0.00 
  54   14:30   0.57   54.8    47   14.6   282    21.6   988.1    0.00 
  54   14:40   0.54   55.4    46   11.2   292    18.3   988.2    0.00 
  54   14:50   0.51   54.8    46   10.6   285    15.6   988.2    0.00 
  54   15:00   0.48   55.1    45   12.9   289    19.0   988.2    0.00 
  54   15:10   0.46   54.7    46   11.0   288    16.1   988.2    0.00 
  54   15:20   0.43   54.6    48   11.8   275    16.1   988.2    0.00 
  54   15:30   0.40   54.7    49   11.8   263    17.9   988.3    0.00 
  54   15:40   0.36   54.9    48   10.5   281    17.8   988.2    0.00 
  54   15:50   0.33   54.7    46    9.4   303    13.4   988.5    0.00 
  54   16:00   0.29   54.4    49   11.6   276    18.0   988.5    0.00 
  54   16:10   0.26   54.0    48    9.4   290    15.1   988.5    0.00 
  54   16:20   0.23   54.0    50    7.6   292    12.0   988.5    0.00 
  54   16:30   0.19   54.2    50    7.6   299    12.8   988.5    0.00 
  54   16:40   0.16   53.7    50    6.6   280    11.3   988.5    0.00 
  54   16:50   0.13   53.7    50    5.6   305     9.0   988.5    0.00 
  54   17:00   0.09   53.5    50    4.5   307     7.6   988.3    0.00 
  54   17:10   0.07   53.2    51    4.1   318     7.0   988.3    0.00 
  54   17:20   0.04   52.4    54    5.8   288     8.8   988.4    0.00 
  54   17:30   0.02   51.2    57    7.3   298     9.8   988.6    0.00 
  54   17:40   0.00   50.2    59    7.2   289     9.5   988.7    0.00 
  54   17:50   0.00   49.2    61    8.2   291    10.2   988.7    0.00 
  54   18:00   0.00   48.8    62    8.3   298    11.1   988.8    0.00 
  54   18:10   0.00   48.8    61    7.8   299    10.2   988.8    0.00 
  54   18:20   0.00   48.5    61    6.7   299     9.0   988.8    0.00 
  54   18:30   0.00   48.3    60    6.2   302     8.0   988.8    0.00 
  54   18:40   0.00   48.3    59    5.7   302     7.5   988.8    0.00 
  54   18:50   0.00   48.1    59    4.9   308     6.2   988.9    0.00 
  54   19:00   0.00   48.4    58    3.7   314     6.1   988.9    0.00 
  54   19:10   0.00   48.7    56    2.7   304     3.4   989.0    0.00 
  54   19:20   0.00   49.0    55    2.8   301     3.6   989.1    0.00 
  54   19:30   0.00   49.1    54    2.4   293     3.0   989.1    0.00 
  54   19:40   0.00   49.3    54    1.6   291     2.3   989.2    0.00 
  54   19:50   0.00   48.8    56    0.4   298     1.2   989.2    0.00 
  54   20:00   0.00   48.6    55    1.0   264     1.2   989.2    0.00 
  54   20:10   0.00   48.8    54    1.0   261     1.5   989.2    0.00 
  54   20:20   0.00   49.1    53    1.4   253     1.7   989.3    0.00 
  54   20:30   0.00   49.0    54    0.2   260     1.0   989.3    0.00 
  54   20:40   0.00   48.4    55    0.2    86     0.7   989.4    0.00 
  54   20:50   0.00   48.7    54    0.0     0     0.0   989.4    0.00 
  54   21:00   0.00   48.7    54    1.4   114     1.8   989.5    0.00 
  54   21:10   0.00   48.4    54    1.9   119     2.1   989.6    0.00 
  54   21:20   0.00   48.5    54    2.3   124     2.9   989.6    0.00 
  54   21:30   0.00   48.4    54    3.1   127     3.8   989.6    0.00 
  54   21:40   0.00   47.8    57    3.6   117     4.9   989.7    0.00 
  54   21:50   0.00   47.3    58    3.6   110     5.0   989.7    0.00 
  54   22:00   0.00   46.7    60    4.7   114     7.7   989.7    0.00 
  54   22:10   0.00   45.7    64    6.0   110     8.0   989.6    0.00 
  54   22:20   0.00   44.8    68    6.0   107     8.5   989.6    0.00 
  54   22:30   0.00   44.3    72    8.4   111    10.2   989.6    0.00 
  54   22:40   0.00   44.5    73    8.7   113    10.9   989.5    0.00 
  54   22:50   0.00   44.7    73    8.5   110    10.8   989.6    0.00 
  54   23:00   0.00   44.6    74    7.5   105     9.5   989.7    0.00 
  54   23:10   0.00   44.6    74    9.7   113    11.4   989.6    0.00 
  54   23:20   0.00   44.5    74    9.9   109    11.6   989.7    0.00 
  54   23:30   0.00   44.8    73    9.6   112    11.9   989.8    0.00 
  54   23:40   0.00   44.5    73    9.9   108    11.8   989.8    0.00 
  54   23:50   0.00   44.4    74    9.1   111    11.0   989.8    0.00 
  55    0:00   0.00   44.3    73    8.8   113    10.4   989.8    0.00 
  55    0:10   0.00   44.3    73    8.7   110    10.7   989.8    0.00 
  55    0:20   0.00   44.2    73    8.9   112    10.7   989.8    0.00 
  55    0:30   0.00   43.9    74    9.1   111    10.5   989.8    0.00 
  55    0:40   0.00   43.6    76    8.4   109    10.7   989.8    0.00 
  55    0:50   0.00   43.3    76    8.5   110    10.5   989.7    0.00 
  55    1:00   0.00   43.3    76    8.9   110    10.7   989.7    0.00 
  55    1:10   0.00   43.5    75   10.5   112    13.0   989.7    0.00 
  55    1:20   0.00   43.8    74   10.4   111    12.2   989.7    0.00 
  55    1:30   0.00   43.7    74   10.4   112    12.2   989.6    0.00 
  55    1:40   0.00   43.7    74    9.8   107    12.1   989.5    0.00 
  55    1:50   0.00   43.3    75    9.8   104    11.5   989.6    0.00 
  55    2:00   0.00   43.3    75    9.3   104    11.5   989.5    0.00 
  55    2:10   0.00   42.9    77    8.8   100    11.7   989.5    0.00 
  55    2:20   0.00   42.8    77    8.0    96    10.2   989.3    0.00 
  55    2:30   0.00   42.5    77    7.3    94    10.2   989.3    0.00 
  55    2:40   0.00   42.4    78    7.8    98    10.0   989.3    0.00 
  55    2:50   0.00   42.6    77    8.7    96    10.5   989.2    0.00 
  55    3:00   0.00   42.6    77    5.6    82     8.3   989.2    0.00 
  55    3:10   0.00   42.4    78    6.9    77     8.5   989.1    0.00 
  55    3:20   0.00   42.5    77    6.9    80     9.2   989.1    0.00 
  55    3:30   0.00   42.3    77    7.1    89     9.0   989.1    0.00 
  55    3:40   0.00   41.9    78    6.9    88     8.8   988.9    0.00 
  55    3:50   0.00   42.0    78    6.6    91     9.2   989.0    0.00 
  55    4:00   0.00   41.8    79    7.5    81     9.4   988.9    0.00 
  55    4:10   0.00   42.0    77    7.1    77     8.6   988.8    0.00 
  55    4:20   0.00   42.7    74    6.7    78     8.6   988.8    0.00 
  55    4:30   0.00   42.6    75    7.1    83     8.6   988.8    0.00 
  55    4:40   0.00   42.4    75    7.1    84     8.8   988.7    0.00 
  55    4:50   0.00   42.1    76    6.8    82     8.6   988.7    0.00 
  55    5:00   0.00   42.1    76    5.6    82     7.8   988.9    0.00 
  55    5:10   0.00   42.4    75    4.5    81     6.6   989.1    0.00 
  55    5:20   0.00   42.5    75    5.2    83     7.2   989.2    0.00 
  55    5:30   0.00   42.2    77    5.1    70     7.1   989.3    0.00 
  55    5:40   0.00   41.8    78    5.1    80     7.0   989.5    0.00 
  55    5:50   0.00   42.0    78    5.3    89     8.8   989.6    0.00 
  55    6:00   0.00   41.6    79    5.1    78     7.3   989.7    0.00 
  55    6:10   0.00   41.5    80    4.6    79     6.6   989.8    0.00 
  55    6:20   0.00   41.5    80    5.9    90     8.6   989.8    0.00 
  55    6:30   0.00   41.2    81    5.8    92     8.6   990.0    0.00 
  55    6:40   0.02   41.6    80    8.4   105    11.3   990.1    0.00 
  55    6:50   0.05   42.3    78    9.6   100    12.5   990.2    0.00 
  55    7:00   0.08   43.3    75    9.1    97    12.4   990.3    0.00 
  55    7:10   0.10   44.3    73    9.5    97    12.1   990.3    0.00 
  55    7:20   0.14   45.4    70    9.3   103    11.8   990.4    0.00 
  55    7:30   0.17   46.4    68    9.3   105    12.0   990.7    0.00 
  55    7:40   0.21   47.0    67    9.6    98    11.2   990.8    0.00 
  55    7:50   0.25   47.8    66    8.5   102    11.6   991.1    0.00 
  55    8:00   0.25   49.1    63    9.0   116    11.2   991.4    0.00 
  55    8:10   0.17   48.6    64    8.5   112    10.7   991.7    0.00 
  55    8:20   0.34   49.9    61    8.5   112    10.7   991.9    0.00 
  55    8:30   0.38   51.1    60    7.3   113     9.9   992.1    0.00 
  55    8:40   0.41   52.5    59    6.2   110     8.0   992.3    0.00 
  55    8:50   0.44   53.4    57    5.8   108     9.3   992.4    0.00 
  55    9:00   0.47   53.3    54    4.9    86     6.9   992.5    0.00 

Return to Elliot Chaparral Reserve graphs page.


Western Regional Climate Center,wrcc@dri.edu